Time;durP1;ratioP1;P1;durP2;ratioP2;P2;SDS_P1;SDS_P2;PMS_P1;PMS_P2;Temp;Humidity;BMP_temperature;BMP_pressure;BME280_temperature;BME280_humidity;BME280_pressure;Samples;Min_cycle;Max_cycle;Signal;HPM_P1;HPM_P2
2022/10/25 00:00:51;;;;;;;1.30;0.30;;;;;;;;;;4931773;29;20203;-72
2022/10/25 00:03:18;;;;;;;1.38;0.40;;;;;;;;;;4932033;29;20207;-71
2022/10/25 00:05:45;;;;;;;0.70;0.40;;;;;;;;;;4931965;29;20227;-71
2022/10/25 00:08:12;;;;;;;2.95;0.40;;;;;;;;;;4932197;29;20219;-71
2022/10/25 00:10:39;;;;;;;1.05;0.50;;;;;;;;;;4932178;29;20219;-72
2022/10/25 00:13:08;;;;;;;0.50;0.50;;;;;;;;;;4932030;29;20211;-70
2022/10/25 00:15:35;;;;;;;2.42;0.47;;;;;;;;;;4932005;29;20204;-71
2022/10/25 00:18:02;;;;;;;1.50;0.50;;;;;;;;;;4931981;29;20211;-71
2022/10/25 00:20:29;;;;;;;0.45;0.40;;;;;;;;;;4931996;29;20237;-71
2022/10/25 00:22:56;;;;;;;2.53;0.30;;;;;;;;;;4931900;29;20207;-71
2022/10/25 00:25:23;;;;;;;0.70;0.33;;;;;;;;;;4931938;29;20219;-71
2022/10/25 00:27:50;;;;;;;0.83;0.40;;;;;;;;;;4931633;29;20710;-72
2022/10/25 00:30:19;;;;;;;1.85;0.57;;;;;;;;;;4931558;29;20570;-71
2022/10/25 00:32:46;;;;;;;0.47;0.47;;;;;;;;;;4931430;29;20216;-72
2022/10/25 00:35:13;;;;;;;1.10;0.40;;;;;;;;;;4931532;29;20575;-71
2022/10/25 00:37:40;;;;;;;0.80;0.40;;;;;;;;;;4931265;29;20208;-71
2022/10/25 00:40:07;;;;;;;0.50;0.50;;;;;;;;;;4931657;29;20208;-72
2022/10/25 00:42:34;;;;;;;0.50;0.50;;;;;;;;;;4931221;29;20215;-72
2022/10/25 00:45:03;;;;;;;2.03;0.50;;;;;;;;;;4931100;29;20555;-72
2022/10/25 00:47:41;;;;;;;0.60;0.33;;;;;;;;;;4931220;29;20227;-72
2022/10/25 00:50:15;;;;;;;0.93;0.90;;;;;;;;;;4926259;29;20215;-72
2022/10/25 00:52:43;;;;;;;0.30;0.30;;;;;;;;;;4931272;29;20219;-72
2022/10/25 00:55:11;;;;;;;0.40;0.40;;;;;;;;;;4931547;29;20236;-72
2022/10/25 00:57:41;;;;;;;2.00;0.60;;;;;;;;;;4930907;29;20287;-72
2022/10/25 01:00:09;;;;;;;1.17;1.13;;;;;;;;;;4931190;29;20199;-72
2022/10/25 01:02:36;;;;;;;3.60;1.00;;;;;;;;;;4930849;29;20204;-72
2022/10/25 01:05:05;;;;;;;2.13;1.07;;;;;;;;;;4931399;29;20212;-73
2022/10/25 01:07:32;;;;;;;3.87;0.80;;;;;;;;;;4930950;29;20234;-72
2022/10/25 01:09:59;;;;;;;0.93;0.93;;;;;;;;;;4931495;29;20215;-72
2022/10/25 01:12:26;;;;;;;2.73;1.43;;;;;;;;;;4930398;29;20216;-72
2022/10/25 01:14:53;;;;;;;3.37;1.60;;;;;;;;;;4930801;29;20594;-72
2022/10/25 01:20:27;;;;;;;4.73;0.87;;;;;;;;;;4930943;29;20200;-72
2022/10/25 01:22:58;;;;;;;2.73;0.70;;;;;;;;;;4931084;29;20211;-71
2022/10/25 01:25:36;;;;;;;0.47;0.47;;;;;;;;;;4931258;29;20568;-71
2022/10/25 01:28:05;;;;;;;0.70;0.27;;;;;;;;;;4931012;29;20234;-72
2022/10/25 01:30:45;;;;;;;2.67;0.30;;;;;;;;;;4930878;29;20252;-71
2022/10/25 01:33:17;;;;;;;0.40;0.40;;;;;;;;;;4917551;29;20203;-72
2022/10/25 01:35:48;;;;;;;1.43;0.40;;;;;;;;;;4921959;29;20230;-72
2022/10/25 01:38:21;;;;;;;2.13;0.30;;;;;;;;;;4931174;29;20204;-72
2022/10/25 01:40:51;;;;;;;0.50;0.50;;;;;;;;;;4930457;29;20282;-72
2022/10/25 01:43:23;;;;;;;2.50;0.57;;;;;;;;;;4930766;29;20610;-71
2022/10/25 01:45:56;;;;;;;1.30;0.30;;;;;;;;;;4931116;29;20670;-72
2022/10/25 01:48:26;;;;;;;1.93;0.60;;;;;;;;;;4930606;29;20215;-72
2022/10/25 01:50:53;;;;;;;0.77;0.40;;;;;;;;;;4930632;29;20250;-71
2022/10/25 01:53:20;;;;;;;0.70;0.50;;;;;;;;;;4930965;29;20247;-72
2022/10/25 01:55:50;;;;;;;0.40;0.40;;;;;;;;;;4931639;29;20241;-72
2022/10/25 01:58:21;;;;;;;3.20;0.50;;;;;;;;;;4934834;29;20204;-72
2022/10/25 02:03:45;;;;;;;1.70;0.50;;;;;;;;;;4932914;29;20215;-72
2022/10/25 02:06:17;;;;;;;2.17;0.63;;;;;;;;;;4928136;29;20569;-72
2022/10/25 02:08:47;;;;;;;0.30;0.30;;;;;;;;;;4932428;29;20713;-72
2022/10/25 02:11:18;;;;;;;0.53;0.53;;;;;;;;;;4934456;29;20306;-72
2022/10/25 02:13:51;;;;;;;0.50;0.40;;;;;;;;;;4934821;29;20215;-72
2022/10/25 02:16:21;;;;;;;0.30;0.30;;;;;;;;;;4934378;29;20208;-72
2022/10/25 02:18:51;;;;;;;2.43;0.50;;;;;;;;;;4934323;29;20585;-71
2022/10/25 02:21:19;;;;;;;3.20;0.57;;;;;;;;;;4934497;29;20203;-72
2022/10/25 02:23:46;;;;;;;3.53;0.70;;;;;;;;;;4934266;29;20211;-72
2022/10/25 02:26:15;;;;;;;0.33;0.33;;;;;;;;;;4934318;29;20211;-71
2022/10/25 02:28:42;;;;;;;0.50;0.50;;;;;;;;;;4934112;29;20212;-72
2022/10/25 02:31:11;;;;;;;3.13;0.50;;;;;;;;;;4934172;29;20692;-72
2022/10/25 02:33:38;;;;;;;1.43;0.50;;;;;;;;;;4934192;29;20318;-71
2022/10/25 02:36:07;;;;;;;0.30;0.30;;;;;;;;;;4933968;29;20211;-71
2022/10/25 02:38:34;;;;;;;0.50;0.50;;;;;;;;;;4933739;29;20211;-71
2022/10/25 02:41:03;;;;;;;2.23;0.37;;;;;;;;;;4934295;29;20212;-71
2022/10/25 02:43:30;;;;;;;0.40;0.40;;;;;;;;;;4933943;29;20682;-71
2022/10/25 02:45:57;;;;;;;2.30;0.60;;;;;;;;;;4934051;29;20199;-71
2022/10/25 02:48:24;;;;;;;0.50;0.50;;;;;;;;;;4934625;29;20231;-71
2022/10/25 02:50:51;;;;;;;1.33;0.60;;;;;;;;;;4933330;29;20208;-71
2022/10/25 02:53:19;;;;;;;1.90;0.50;;;;;;;;;;4933056;29;20635;-71
2022/10/25 02:55:46;;;;;;;0.50;0.50;;;;;;;;;;4932703;29;20733;-72
2022/10/25 02:58:13;;;;;;;0.40;0.40;;;;;;;;;;4933078;29;20691;-71
2022/10/25 03:00:40;;;;;;;0.40;0.40;;;;;;;;;;4932801;29;20235;-71
2022/10/25 03:03:07;;;;;;;0.93;0.40;;;;;;;;;;4932790;29;20254;-71
2022/10/25 03:05:34;;;;;;;1.93;0.47;;;;;;;;;;4932762;29;20219;-71
2022/10/25 03:08:01;;;;;;;0.77;0.40;;;;;;;;;;4932303;29;20231;-72
2022/10/25 03:10:30;;;;;;;0.37;0.37;;;;;;;;;;4933113;29;20204;-71
2022/10/25 03:12:57;;;;;;;0.83;0.50;;;;;;;;;;4932791;29;20225;-72
2022/10/25 03:15:24;;;;;;;0.53;0.53;;;;;;;;;;4932925;29;20211;-71
2022/10/25 03:17:51;;;;;;;0.40;0.40;;;;;;;;;;4932455;29;20215;-71
2022/10/25 03:20:18;;;;;;;0.43;0.43;;;;;;;;;;4932950;29;20249;-72
2022/10/25 03:22:45;;;;;;;0.40;0.40;;;;;;;;;;4932049;29;20658;-72
2022/10/25 03:25:12;;;;;;;0.30;0.30;;;;;;;;;;4932826;29;20215;-72
2022/10/25 03:27:40;;;;;;;5.70;0.50;;;;;;;;;;4932781;29;20224;-72
2022/10/25 03:30:08;;;;;;;2.77;0.43;;;;;;;;;;4932580;29;20627;-72
2022/10/25 03:32:35;;;;;;;0.67;0.40;;;;;;;;;;4932248;29;20219;-71
2022/10/25 03:35:02;;;;;;;0.40;0.40;;;;;;;;;;4932031;29;20207;-71
2022/10/25 03:37:29;;;;;;;0.50;0.50;;;;;;;;;;4932347;29;20204;-71
2022/10/25 03:39:56;;;;;;;0.70;0.53;;;;;;;;;;4931361;29;20212;-71
2022/10/25 03:42:23;;;;;;;1.17;0.70;;;;;;;;;;4933114;29;20216;-71
2022/10/25 03:44:52;;;;;;;1.90;0.70;;;;;;;;;;4932660;29;20709;-71
2022/10/25 03:47:19;;;;;;;0.30;0.30;;;;;;;;;;4933095;29;20547;-72
2022/10/25 03:49:46;;;;;;;0.60;0.40;;;;;;;;;;4932588;29;20679;-71
2022/10/25 03:52:13;;;;;;;0.40;0.40;;;;;;;;;;4932800;29;20219;-71
2022/10/25 03:54:41;;;;;;;3.93;0.67;;;;;;;;;;4932713;29;20239;-72
2022/10/25 03:57:08;;;;;;;2.00;0.60;;;;;;;;;;4932760;29;20246;-72
2022/10/25 03:59:35;;;;;;;0.33;0.30;;;;;;;;;;4932160;29;20208;-71
2022/10/25 04:02:04;;;;;;;0.50;0.50;;;;;;;;;;4931987;29;20211;-71
2022/10/25 04:04:31;;;;;;;0.60;0.60;;;;;;;;;;4932555;29;20219;-72
2022/10/25 04:06:58;;;;;;;0.50;0.50;;;;;;;;;;4931738;29;20207;-72
2022/10/25 04:09:25;;;;;;;2.77;0.43;;;;;;;;;;4932152;29;20239;-73
2022/10/25 04:11:52;;;;;;;2.70;0.40;;;;;;;;;;4927785;29;20235;-72
2022/10/25 04:14:19;;;;;;;0.73;0.30;;;;;;;;;;4932408;29;20722;-72
2022/10/25 04:16:55;;;;;;;0.63;0.63;;;;;;;;;;4931627;29;20200;-72
2022/10/25 04:19:23;;;;;;;0.70;0.50;;;;;;;;;;4931477;29;20219;-72
2022/10/25 04:21:50;;;;;;;1.17;0.40;;;;;;;;;;4931781;29;20219;-73
2022/10/25 04:24:17;;;;;;;1.37;0.50;;;;;;;;;;4932106;29;20212;-72
2022/10/25 04:26:44;;;;;;;0.40;0.40;;;;;;;;;;4929223;29;20317;-72
2022/10/25 04:29:12;;;;;;;3.63;0.53;;;;;;;;;;4929026;29;20219;-73
2022/10/25 04:31:39;;;;;;;0.67;0.40;;;;;;;;;;4932031;29;20275;-73
2022/10/25 04:34:06;;;;;;;0.83;0.50;;;;;;;;;;4932097;29;20215;-73
2022/10/25 04:36:34;;;;;;;1.07;0.57;;;;;;;;;;4932038;29;20600;-73
2022/10/25 04:39:01;;;;;;;2.53;0.70;;;;;;;;;;4932470;29;20216;-73
2022/10/25 04:41:29;;;;;;;1.03;0.40;;;;;;;;;;4932064;29;20224;-73
2022/10/25 04:43:56;;;;;;;2.47;0.70;;;;;;;;;;4932246;29;20223;-73
2022/10/25 04:46:23;;;;;;;0.50;0.50;;;;;;;;;;4930249;29;20215;-73
2022/10/25 04:48:50;;;;;;;0.50;0.50;;;;;;;;;;4931399;29;20227;-73
2022/10/25 04:51:17;;;;;;;0.77;0.60;;;;;;;;;;4921042;29;20211;-73
2022/10/25 04:53:45;;;;;;;1.67;0.67;;;;;;;;;;4923010;29;20232;-73
2022/10/25 04:56:13;;;;;;;5.03;0.80;;;;;;;;;;4931365;29;20238;-73
2022/10/25 04:58:41;;;;;;;2.00;0.50;;;;;;;;;;4931713;29;20239;-73
2022/10/25 05:01:09;;;;;;;0.50;0.50;;;;;;;;;;4931732;29;20204;-73
2022/10/25 05:03:36;;;;;;;0.50;0.50;;;;;;;;;;4931724;29;20215;-72
2022/10/25 05:06:07;;;;;;;1.60;0.50;;;;;;;;;;4927754;29;20208;-73
2022/10/25 05:08:34;;;;;;;0.50;0.50;;;;;;;;;;4929675;29;20607;-73
2022/10/25 05:11:02;;;;;;;1.07;0.40;;;;;;;;;;4931478;29;20223;-72
2022/10/25 05:13:31;;;;;;;0.40;0.40;;;;;;;;;;4931614;29;20212;-72
2022/10/25 05:15:59;;;;;;;1.10;0.57;;;;;;;;;;4931528;29;20211;-73
2022/10/25 05:18:26;;;;;;;3.73;0.70;;;;;;;;;;4931314;29;20203;-73
2022/10/25 05:20:53;;;;;;;5.93;0.67;;;;;;;;;;4931453;29;20990;-76
2022/10/25 05:23:20;;;;;;;0.50;0.50;;;;;;;;;;4930956;29;20207;-75
2022/10/25 05:25:48;;;;;;;3.70;0.53;;;;;;;;;;4931318;29;20340;-75
2022/10/25 05:28:16;;;;;;;1.23;0.50;;;;;;;;;;4930865;29;20224;-75
2022/10/25 05:30:44;;;;;;;0.40;0.40;;;;;;;;;;4922026;29;20212;-76
2022/10/25 05:33:11;;;;;;;0.83;0.70;;;;;;;;;;4930846;29;20863;-75
2022/10/25 05:35:38;;;;;;;0.50;0.30;;;;;;;;;;4931136;29;20208;-77
2022/10/25 05:38:05;;;;;;;2.60;0.70;;;;;;;;;;4930084;29;20203;-73
2022/10/25 05:40:32;;;;;;;7.30;0.90;;;;;;;;;;4930738;29;20208;-72
2022/10/25 05:42:59;;;;;;;0.60;0.40;;;;;;;;;;4928226;29;20207;-73
2022/10/25 05:45:27;;;;;;;0.40;0.40;;;;;;;;;;4928656;29;20698;-73
2022/10/25 05:47:55;;;;;;;0.70;0.70;;;;;;;;;;4931027;29;20259;-74
2022/10/25 05:50:22;;;;;;;0.97;0.73;;;;;;;;;;4930879;29;20611;-75
2022/10/25 05:52:49;;;;;;;1.70;0.70;;;;;;;;;;4931268;29;20702;-75
2022/10/25 05:55:16;;;;;;;2.63;0.60;;;;;;;;;;4930846;29;20234;-74
2022/10/25 05:57:43;;;;;;;0.70;0.70;;;;;;;;;;4931302;29;20235;-74
2022/10/25 06:00:10;;;;;;;2.03;0.70;;;;;;;;;;4929600;29;20574;-74
2022/10/25 06:02:39;;;;;;;1.70;0.73;;;;;;;;;;4930028;29;20449;-74
2022/10/25 06:05:06;;;;;;;1.13;0.50;;;;;;;;;;4921173;29;20213;-74
2022/10/25 06:07:33;;;;;;;0.60;0.60;;;;;;;;;;4928716;29;20678;-74
2022/10/25 06:10:00;;;;;;;0.60;0.60;;;;;;;;;;4921989;29;20215;-73
2022/10/25 06:12:27;;;;;;;0.67;0.67;;;;;;;;;;4925867;29;20208;-73
2022/10/25 06:14:54;;;;;;;1.27;0.80;;;;;;;;;;4930350;29;20208;-73
2022/10/25 06:17:21;;;;;;;0.70;0.70;;;;;;;;;;4931004;29;20208;-73
2022/10/25 06:19:49;;;;;;;0.57;0.57;;;;;;;;;;4930819;29;20224;-72
2022/10/25 06:22:16;;;;;;;1.53;1.10;;;;;;;;;;4930578;29;20212;-72
2022/10/25 06:24:43;;;;;;;0.80;0.60;;;;;;;;;;4930955;29;20219;-73
2022/10/25 06:27:11;;;;;;;2.10;0.80;;;;;;;;;;4930775;29;20224;-72
2022/10/25 06:29:38;;;;;;;1.03;1.00;;;;;;;;;;4930718;29;20235;-79
2022/10/25 06:32:05;;;;;;;0.50;0.50;;;;;;;;;;4929043;29;20717;-73
2022/10/25 06:34:32;;;;;;;1.07;0.57;;;;;;;;;;4925686;29;20231;-73
2022/10/25 06:37:00;;;;;;;1.90;0.70;;;;;;;;;;4927099;29;20211;-72
2022/10/25 06:39:27;;;;;;;0.73;0.73;;;;;;;;;;4923734;29;20200;-72
2022/10/25 06:41:54;;;;;;;0.90;0.90;;;;;;;;;;4922273;29;20211;-72
2022/10/25 06:44:21;;;;;;;0.87;0.87;;;;;;;;;;4933227;29;20211;-72
2022/10/25 06:46:48;;;;;;;0.90;0.90;;;;;;;;;;4933510;29;20581;-73
2022/10/25 06:49:16;;;;;;;0.60;0.60;;;;;;;;;;4926112;29;20230;-73
2022/10/25 06:51:43;;;;;;;0.80;0.80;;;;;;;;;;4924232;29;20225;-72
2022/10/25 06:54:11;;;;;;;0.87;0.87;;;;;;;;;;4925249;29;20225;-71
2022/10/25 06:56:38;;;;;;;2.47;1.10;;;;;;;;;;4922373;29;20250;-71
2022/10/25 06:59:07;;;;;;;1.43;1.03;;;;;;;;;;4924062;29;20218;-71
2022/10/25 07:01:34;;;;;;;0.60;0.57;;;;;;;;;;4922417;29;20240;-72
2022/10/25 07:04:03;;;;;;;3.03;1.13;;;;;;;;;;4924999;29;20211;-72
2022/10/25 07:06:34;;;;;;;1.27;0.70;;;;;;;;;;4930273;29;20220;-71
2022/10/25 07:09:01;;;;;;;1.07;0.80;;;;;;;;;;4929728;29;20228;-72
2022/10/25 07:11:31;;;;;;;0.70;0.70;;;;;;;;;;4922010;29;20815;-71
2022/10/25 07:13:58;;;;;;;1.97;0.70;;;;;;;;;;4932569;29;20215;-73
2022/10/25 07:16:26;;;;;;;2.17;0.90;;;;;;;;;;4932418;29;20215;-71
2022/10/25 07:18:53;;;;;;;1.00;0.97;;;;;;;;;;4924623;29;20204;-71
2022/10/25 07:21:21;;;;;;;1.50;0.80;;;;;;;;;;4920765;29;20209;-74
2022/10/25 07:23:48;;;;;;;2.67;0.80;;;;;;;;;;4923901;29;20212;-71
2022/10/25 07:26:16;;;;;;;1.70;0.80;;;;;;;;;;4922854;29;20217;-71
2022/10/25 07:28:47;;;;;;;1.70;0.80;;;;;;;;;;4928333;29;20597;-71
2022/10/25 07:31:15;;;;;;;1.03;1.03;;;;;;;;;;4925245;29;20208;-71
2022/10/25 07:33:42;;;;;;;1.50;0.87;;;;;;;;;;4922666;29;20216;-70
2022/10/25 07:36:09;;;;;;;1.10;1.00;;;;;;;;;;4922279;29;20582;-71
2022/10/25 07:38:36;;;;;;;4.10;0.83;;;;;;;;;;4927814;29;20200;-71
2022/10/25 07:41:03;;;;;;;1.83;0.93;;;;;;;;;;4921791;29;20701;-71
2022/10/25 07:43:30;;;;;;;0.70;0.70;;;;;;;;;;4922603;29;20217;-70
2022/10/25 07:45:59;;;;;;;2.57;0.90;;;;;;;;;;4925959;29;20555;-70
2022/10/25 07:48:26;;;;;;;3.87;0.93;;;;;;;;;;4931784;29;20227;-72
2022/10/25 07:50:53;;;;;;;1.97;0.90;;;;;;;;;;4932233;29;20207;-70
2022/10/25 07:53:20;;;;;;;4.10;1.10;;;;;;;;;;4931788;29;20211;-70
2022/10/25 07:55:51;;;;;;;0.87;0.87;;;;;;;;;;4931960;29;20243;-72
2022/10/25 07:58:18;;;;;;;0.80;0.80;;;;;;;;;;4932188;29;20255;-71
2022/10/25 08:00:45;;;;;;;0.90;0.90;;;;;;;;;;4932812;29;20216;-75
2022/10/25 08:03:14;;;;;;;1.23;0.90;;;;;;;;;;4932475;29;20212;-75
2022/10/25 08:05:41;;;;;;;0.77;0.77;;;;;;;;;;4932499;29;20211;-74
2022/10/25 08:08:08;;;;;;;1.53;0.90;;;;;;;;;;4932391;29;20212;-69
2022/10/25 08:10:35;;;;;;;1.08;0.90;;;;;;;;;;4932160;29;20207;-71
2022/10/25 08:13:02;;;;;;;0.80;0.80;;;;;;;;;;4932493;29;20227;-73
2022/10/25 08:15:29;;;;;;;1.02;0.90;;;;;;;;;;4932524;29;20208;-74
2022/10/25 08:17:59;;;;;;;2.50;0.90;;;;;;;;;;4932566;29;20592;-73
2022/10/25 08:20:28;;;;;;;1.10;0.80;;;;;;;;;;4932227;29;20211;-74
2022/10/25 08:22:58;;;;;;;1.35;0.77;;;;;;;;;;4932570;29;20211;-74
2022/10/25 08:25:25;;;;;;;0.70;0.70;;;;;;;;;;4932050;29;20211;-72
2022/10/25 08:27:52;;;;;;;2.20;1.05;;;;;;;;;;4932090;29;20764;-74
2022/10/25 08:30:19;;;;;;;1.90;0.90;;;;;;;;;;4931870;29;20228;-73
2022/10/25 08:32:46;;;;;;;1.27;0.70;;;;;;;;;;4932212;29;20212;-79
2022/10/25 08:35:14;;;;;;;1.00;0.90;;;;;;;;;;4931622;29;20665;-74
2022/10/25 08:37:42;;;;;;;1.23;1.23;;;;;;;;;;4927331;29;20219;-75
2022/10/25 08:40:16;;;;;;;1.48;0.90;;;;;;;;;;4916825;29;20209;-75
2022/10/25 08:42:50;;;;;;;0.70;0.70;;;;;;;;;;4917665;29;20223;-75
2022/10/25 08:45:20;;;;;;;2.00;1.20;;;;;;;;;;4920191;29;20200;-75
2022/10/25 08:47:48;;;;;;;0.70;0.63;;;;;;;;;;4927920;29;20204;-75
2022/10/25 08:50:17;;;;;;;1.10;0.70;;;;;;;;;;4912222;29;20243;-75
2022/10/25 08:52:47;;;;;;;0.85;0.82;;;;;;;;;;4916147;29;20814;-75
2022/10/25 08:55:15;;;;;;;1.75;0.95;;;;;;;;;;4929484;29;20238;-75
2022/10/25 08:57:45;;;;;;;4.07;1.00;;;;;;;;;;4930704;29;20212;-74
2022/10/25 09:00:16;;;;;;;4.40;1.05;;;;;;;;;;4915356;29;20204;-75
2022/10/25 09:02:46;;;;;;;0.70;0.70;;;;;;;;;;4913122;29;20260;-75
2022/10/25 09:05:14;;;;;;;1.52;0.73;;;;;;;;;;4930793;29;20216;-75
2022/10/25 09:07:49;;;;;;;4.20;0.88;;;;;;;;;;4931570;29;20219;-75
2022/10/25 09:10:22;;;;;;;1.65;1.13;;;;;;;;;;4928662;29;20231;-76
2022/10/25 09:12:55;;;;;;;5.28;1.33;;;;;;;;;;4922140;29;20239;-76
2022/10/25 09:15:29;;;;;;;2.22;0.80;;;;;;;;;;4931070;29;20212;-78
2022/10/25 09:17:56;;;;;;;0.93;0.93;;;;;;;;;;4931525;29;20593;-74
2022/10/25 09:20:26;;;;;;;2.60;1.00;;;;;;;;;;4930664;29;20663;-74
2022/10/25 09:22:59;;;;;;;1.58;0.73;;;;;;;;;;4931217;29;20216;-74
2022/10/25 09:25:30;;;;;;;0.88;0.80;;;;;;;;;;4931210;29;20315;-74
2022/10/25 09:27:59;;;;;;;1.63;1.05;;;;;;;;;;4912446;29;20212;-73
2022/10/25 09:30:27;;;;;;;1.30;0.93;;;;;;;;;;4912491;29;20233;-74
2022/10/25 09:32:56;;;;;;;1.48;1.38;;;;;;;;;;4912460;29;20239;-74
2022/10/25 09:35:25;;;;;;;1.08;0.82;;;;;;;;;;4921355;29;20622;-74
2022/10/25 09:37:53;;;;;;;0.60;0.60;;;;;;;;;;4928902;29;20215;-74
2022/10/25 09:40:24;;;;;;;1.20;0.80;;;;;;;;;;4912538;29;20215;-74
2022/10/25 09:42:52;;;;;;;3.05;0.93;;;;;;;;;;4922023;29;20219;-73
2022/10/25 09:45:23;;;;;;;2.47;0.80;;;;;;;;;;4931153;29;20911;-73
2022/10/25 09:47:53;;;;;;;1.27;0.70;;;;;;;;;;4930749;29;20698;-74
2022/10/25 09:50:24;;;;;;;1.95;0.90;;;;;;;;;;4924426;29;20235;-74
2022/10/25 09:52:56;;;;;;;0.80;0.80;;;;;;;;;;4924982;29;20203;-74
2022/10/25 09:55:31;;;;;;;5.70;0.77;;;;;;;;;;4913706;29;20235;-73
2022/10/25 09:57:58;;;;;;;2.65;0.98;;;;;;;;;;4917749;29;20220;-74
2022/10/25 10:00:25;;;;;;;2.25;0.70;;;;;;;;;;4912129;29;20213;-74
2022/10/25 10:02:52;;;;;;;1.85;0.60;;;;;;;;;;4911944;29;20216;-74
2022/10/25 10:05:21;;;;;;;0.57;0.57;;;;;;;;;;4911714;29;20219;-74
2022/10/25 10:07:48;;;;;;;1.65;0.70;;;;;;;;;;4912080;29;20584;-73
2022/10/25 10:10:18;;;;;;;0.60;0.60;;;;;;;;;;4925959;29;20250;-73
2022/10/25 10:12:51;;;;;;;1.52;0.60;;;;;;;;;;4930529;29;20576;-74
2022/10/25 10:15:21;;;;;;;0.60;0.60;;;;;;;;;;4930598;29;20220;-73
2022/10/25 10:17:48;;;;;;;1.08;0.70;;;;;;;;;;4931676;29;20219;-74
2022/10/25 10:20:16;;;;;;;0.80;0.80;;;;;;;;;;4934462;29;20218;-73
2022/10/25 10:22:51;;;;;;;0.85;0.38;;;;;;;;;;4933875;29;20211;-73
2022/10/25 10:25:21;;;;;;;0.77;0.55;;;;;;;;;;4934185;29;20223;-73
2022/10/25 10:27:51;;;;;;;2.38;0.40;;;;;;;;;;4934435;29;20262;-74
2022/10/25 10:30:27;;;;;;;0.30;0.30;;;;;;;;;;4934149;29;20254;-74
2022/10/25 10:32:55;;;;;;;0.40;0.40;;;;;;;;;;4934068;29;20223;-74
2022/10/25 10:35:27;;;;;;;1.20;0.65;;;;;;;;;;4933613;29;20215;-76
2022/10/25 10:38:13;;;;;;;0.75;0.47;;;;;;;;;;4933743;29;20561;-76
2022/10/25 10:40:40;;;;;;;0.50;0.50;;;;;;;;;;4934051;29;20226;-70
2022/10/25 10:43:22;;;;;;;1.48;0.40;;;;;;;;;;4932606;29;20215;-73
2022/10/25 10:45:50;;;;;;;2.17;0.68;;;;;;;;;;4931925;29;20211;-74
2022/10/25 10:48:19;;;;;;;0.30;0.30;;;;;;;;;;4933750;29;20208;-73
2022/10/25 10:50:49;;;;;;;0.52;0.52;;;;;;;;;;4932904;29;20334;-74
2022/10/25 10:53:20;;;;;;;1.63;0.68;;;;;;;;;;4932713;29;20211;-73
2022/10/25 10:55:48;;;;;;;0.45;0.45;;;;;;;;;;4932605;29;20613;-73
2022/10/25 10:58:17;;;;;;;0.50;0.50;;;;;;;;;;4913959;29;20223;-73
2022/10/25 11:00:50;;;;;;;0.30;0.30;;;;;;;;;;4924318;29;20207;-73
2022/10/25 11:03:45;;;;;;;0.30;0.30;;;;;;;;;;4932903;29;20208;-73
2022/10/25 11:06:13;;;;;;;0.80;0.50;;;;;;;;;;4932333;29;20215;-73
2022/10/25 11:08:41;;;;;;;1.48;0.52;;;;;;;;;;4932034;29;20590;-73
2022/10/25 11:11:14;;;;;;;0.88;0.50;;;;;;;;;;4932053;29;20223;-74
2022/10/25 11:13:45;;;;;;;0.50;0.50;;;;;;;;;;4932447;29;20223;-74
2022/10/25 11:16:23;;;;;;;0.65;0.65;;;;;;;;;;4932181;29;20212;-74
2022/10/25 11:18:53;;;;;;;0.75;0.50;;;;;;;;;;4932667;29;20238;-73
2022/10/25 11:21:30;;;;;;;0.45;0.43;;;;;;;;;;4932271;29;20199;-73
2022/10/25 11:24:03;;;;;;;0.65;0.47;;;;;;;;;;4932422;29;20200;-71
2022/10/25 11:26:33;;;;;;;0.30;0.30;;;;;;;;;;4932732;29;20207;-71
2022/10/25 11:29:04;;;;;;;0.32;0.28;;;;;;;;;;4932239;29;20212;-74
2022/10/25 11:31:38;;;;;;;0.60;0.60;;;;;;;;;;4931538;29;20212;-72
2022/10/25 11:34:09;;;;;;;0.40;0.40;;;;;;;;;;4931975;29;20214;-68
2022/10/25 11:36:51;;;;;;;0.55;0.55;;;;;;;;;;4932779;29;20216;-73
2022/10/25 11:39:26;;;;;;;0.50;0.45;;;;;;;;;;4930414;29;20223;-73
2022/10/25 11:41:56;;;;;;;0.40;0.40;;;;;;;;;;4931700;29;20219;-72
2022/10/25 11:44:40;;;;;;;2.08;0.70;;;;;;;;;;4932035;29;20208;-73
2022/10/25 11:47:12;;;;;;;0.50;0.50;;;;;;;;;;4931913;29;20212;-73
2022/10/25 11:49:45;;;;;;;0.52;0.50;;;;;;;;;;4930184;29;20235;-73
2022/10/25 11:52:19;;;;;;;0.80;0.80;;;;;;;;;;4929976;29;20595;-73
2022/10/25 11:54:52;;;;;;;0.75;0.55;;;;;;;;;;4931161;29;20235;-76
2022/10/25 11:57:24;;;;;;;0.40;0.40;;;;;;;;;;4931517;29;20246;-76
2022/10/25 11:59:56;;;;;;;0.65;0.55;;;;;;;;;;4919694;29;20204;-77
2022/10/25 12:02:35;;;;;;;0.55;0.55;;;;;;;;;;4912566;29;20605;-77
2022/10/25 12:05:08;;;;;;;0.38;0.38;;;;;;;;;;4921011;29;20252;-76
2022/10/25 12:07:40;;;;;;;1.55;0.63;;;;;;;;;;4912353;29;20212;-76
2022/10/25 12:10:14;;;;;;;0.63;0.63;;;;;;;;;;4928402;29;20234;-77
2022/10/25 12:12:43;;;;;;;0.82;0.63;;;;;;;;;;4930930;29;20212;-78
2022/10/25 12:15:13;;;;;;;2.03;0.50;;;;;;;;;;4931239;29;20644;-76
2022/10/25 12:17:42;;;;;;;0.50;0.50;;;;;;;;;;4931135;29;20212;-77
2022/10/25 12:20:12;;;;;;;0.80;0.80;;;;;;;;;;4930600;29;20196;-70
2022/10/25 12:22:40;;;;;;;0.70;0.68;;;;;;;;;;4930609;29;20242;-76
2022/10/25 12:25:14;;;;;;;2.15;0.70;;;;;;;;;;4912488;29;20220;-76
2022/10/25 12:27:42;;;;;;;1.85;0.63;;;;;;;;;;4909993;29;20216;-76
2022/10/25 12:30:15;;;;;;;1.65;0.70;;;;;;;;;;4911947;29;20417;-76
2022/10/25 12:32:44;;;;;;;0.63;0.63;;;;;;;;;;4911841;29;20217;-75
2022/10/25 12:35:18;;;;;;;2.78;1.00;;;;;;;;;;4911127;29;20220;-76
2022/10/25 12:37:48;;;;;;;3.58;0.93;;;;;;;;;;4911855;29;20573;-76
2022/10/25 12:40:18;;;;;;;1.15;0.80;;;;;;;;;;4911171;29;20783;-76
2022/10/25 12:42:46;;;;;;;1.02;0.90;;;;;;;;;;4920271;29;20219;-76
2022/10/25 12:45:25;;;;;;;1.80;0.52;;;;;;;;;;4930470;29;20684;-76
2022/10/25 12:48:01;;;;;;;1.95;0.70;;;;;;;;;;4930796;29;20215;-76
2022/10/25 12:50:34;;;;;;;0.80;0.80;;;;;;;;;;4930532;29;20235;-77
2022/10/25 12:53:22;;;;;;;0.50;0.50;;;;;;;;;;4930256;29;20215;-76
2022/10/25 12:55:57;;;;;;;1.17;0.60;;;;;;;;;;4913635;29;20737;-76
2022/10/25 12:58:29;;;;;;;0.95;0.50;;;;;;;;;;4930651;29;20760;-76
2022/10/25 13:01:03;;;;;;;2.30;0.45;;;;;;;;;;4930399;29;20223;-76
2022/10/25 13:03:45;;;;;;;0.80;0.40;;;;;;;;;;4929094;29;20674;-76
2022/10/25 13:06:30;;;;;;;1.38;0.55;;;;;;;;;;4929703;29;20235;-77
2022/10/25 13:09:05;;;;;;;0.40;0.40;;;;;;;;;;4931347;29;20215;-76
2022/10/25 13:11:33;;;;;;;0.40;0.40;;;;;;;;;;4930875;29;20235;-77
2022/10/25 13:14:00;;;;;;;0.45;0.40;;;;;;;;;;4930742;29;20215;-77
2022/10/25 13:16:29;;;;;;;2.08;0.35;;;;;;;;;;4930484;29;20216;-76
2022/10/25 13:19:29;;;;;;;1.00;0.77;;;;;;;;;;4930298;29;20204;-76
2022/10/25 13:22:29;;;;;;;0.50;0.50;;;;;;;;;;4889261;29;20201;-76
2022/10/25 13:24:56;;;;;;;0.40;0.40;;;;;;;;;;4890139;29;20227;-73
2022/10/25 13:27:24;;;;;;;0.50;0.50;;;;;;;;;;4916559;29;20219;-76
2022/10/25 13:30:02;;;;;;;0.57;0.47;;;;;;;;;;4930232;29;20219;-78
2022/10/25 13:32:29;;;;;;;0.98;0.50;;;;;;;;;;4930247;29;20296;-76
2022/10/25 13:34:57;;;;;;;2.17;0.65;;;;;;;;;;4930394;29;20961;-76
2022/10/25 13:37:45;;;;;;;0.60;0.40;;;;;;;;;;4930777;29;20644;-76
2022/10/25 13:40:24;;;;;;;1.33;0.32;;;;;;;;;;4927333;29;20208;-77
2022/10/25 13:42:59;;;;;;;0.57;0.57;;;;;;;;;;4930235;29;20314;-77
2022/10/25 13:45:30;;;;;;;1.67;0.65;;;;;;;;;;4930542;29;20214;-77
2022/10/25 13:47:58;;;;;;;1.05;0.50;;;;;;;;;;4929998;29;20218;-76
2022/10/25 13:50:27;;;;;;;1.40;0.45;;;;;;;;;;4929816;29;20724;-76
2022/10/25 13:53:00;;;;;;;0.57;0.57;;;;;;;;;;4932321;29;20219;-76
2022/10/25 13:55:31;;;;;;;0.50;0.50;;;;;;;;;;4933122;29;20250;-75
2022/10/25 13:58:00;;;;;;;3.47;0.50;;;;;;;;;;4933979;29;20678;-76
2022/10/25 14:00:30;;;;;;;1.15;0.55;;;;;;;;;;4933776;29;20290;-77
2022/10/25 14:03:04;;;;;;;0.70;0.70;;;;;;;;;;4933528;29;20215;-76
2022/10/25 14:05:50;;;;;;;0.50;0.50;;;;;;;;;;4933792;29;20223;-77
2022/10/25 14:08:19;;;;;;;0.47;0.47;;;;;;;;;;4933247;29;20557;-76
2022/10/25 14:10:48;;;;;;;1.20;0.70;;;;;;;;;;4933234;29;20232;-76
2022/10/25 14:13:18;;;;;;;0.35;0.35;;;;;;;;;;4933539;29;20215;-77
2022/10/25 14:15:49;;;;;;;0.90;0.55;;;;;;;;;;4933411;29;20220;-77
2022/10/25 14:18:18;;;;;;;0.85;0.50;;;;;;;;;;4933901;29;20587;-77
2022/10/25 14:20:47;;;;;;;1.55;0.43;;;;;;;;;;4933895;29;20705;-77
2022/10/25 14:23:15;;;;;;;0.80;0.50;;;;;;;;;;4933801;29;20337;-77
2022/10/25 14:25:43;;;;;;;0.40;0.40;;;;;;;;;;4933938;29;20219;-77
2022/10/25 14:28:15;;;;;;;0.50;0.50;;;;;;;;;;4934127;29;20207;-77
2022/10/25 14:30:43;;;;;;;0.40;0.40;;;;;;;;;;4933798;29;20312;-77
2022/10/25 14:33:21;;;;;;;1.75;0.38;;;;;;;;;;4933891;29;20211;-77
2022/10/25 14:35:49;;;;;;;0.20;0.20;;;;;;;;;;4933568;29;20635;-77
2022/10/25 14:38:18;;;;;;;0.30;0.30;;;;;;;;;;4933423;29;20227;-76
2022/10/25 14:40:50;;;;;;;0.20;0.20;;;;;;;;;;4925534;29;20208;-78
2022/10/25 14:43:29;;;;;;;0.20;0.20;;;;;;;;;;4927674;29;20223;-75
2022/10/25 14:45:57;;;;;;;0.30;0.30;;;;;;;;;;4933165;29;20400;-68
2022/10/25 14:48:24;;;;;;;1.10;0.30;;;;;;;;;;4932766;29;20693;-75
2022/10/25 14:50:52;;;;;;;0.40;0.40;;;;;;;;;;4932364;29;20690;-75
2022/10/25 14:53:19;;;;;;;1.65;0.30;;;;;;;;;;4932407;29;20216;-77
2022/10/25 14:55:51;;;;;;;1.85;0.35;;;;;;;;;;4932168;29;20252;-76
2022/10/25 14:58:18;;;;;;;0.40;0.40;;;;;;;;;;4932168;29;20216;-78
2022/10/25 15:00:53;;;;;;;0.65;0.30;;;;;;;;;;4931947;29;20219;-79
2022/10/25 15:03:21;;;;;;;3.70;0.40;;;;;;;;;;4931657;29;20219;-67